sensor_id;sensor_type;location;lat;lon;timestamp;P1;durP1;ratioP1;P2;durP2;ratioP2
39102;SDS011;24847;48.218;16.414;2022-12-10T00:01:50;4.35;;;3.95;;
39102;SDS011;24847;48.218;16.414;2022-12-10T00:06:55;4.07;;;3.67;;
39102;SDS011;24847;48.218;16.414;2022-12-10T00:11:57;3.67;;;3.30;;
39102;SDS011;24847;48.218;16.414;2022-12-10T00:17:00;3.67;;;3.17;;
39102;SDS011;24847;48.218;16.414;2022-12-10T00:22:03;3.25;;;2.83;;
39102;SDS011;24847;48.218;16.414;2022-12-10T00:27:05;2.78;;;2.50;;
39102;SDS011;24847;48.218;16.414;2022-12-10T00:32:08;2.95;;;2.65;;
39102;SDS011;24847;48.218;16.414;2022-12-10T00:37:12;3.15;;;2.85;;
39102;SDS011;24847;48.218;16.414;2022-12-10T00:42:14;2.92;;;2.63;;
39102;SDS011;24847;48.218;16.414;2022-12-10T00:47:16;2.90;;;2.60;;
39102;SDS011;24847;48.218;16.414;2022-12-10T00:52:20;3.15;;;2.85;;
39102;SDS011;24847;48.218;16.414;2022-12-10T00:57:23;3.97;;;3.00;;
39102;SDS011;24847;48.218;16.414;2022-12-10T01:02:25;2.92;;;2.63;;
39102;SDS011;24847;48.218;16.414;2022-12-10T01:07:29;3.45;;;3.15;;
39102;SDS011;24847;48.218;16.414;2022-12-10T01:12:31;4.78;;;3.75;;
39102;SDS011;24847;48.218;16.414;2022-12-10T01:17:33;4.22;;;3.83;;
39102;SDS011;24847;48.218;16.414;2022-12-10T01:22:37;5.25;;;4.57;;
39102;SDS011;24847;48.218;16.414;2022-12-10T01:27:40;5.05;;;4.53;;
39102;SDS011;24847;48.218;16.414;2022-12-10T01:32:42;6.15;;;5.00;;
39102;SDS011;24847;48.218;16.414;2022-12-10T01:37:46;5.28;;;4.55;;
39102;SDS011;24847;48.218;16.414;2022-12-10T01:42:48;5.38;;;4.88;;
39102;SDS011;24847;48.218;16.414;2022-12-10T01:47:50;5.20;;;4.68;;
39102;SDS011;24847;48.218;16.414;2022-12-10T01:52:54;4.78;;;4.32;;
39102;SDS011;24847;48.218;16.414;2022-12-10T01:57:56;4.93;;;4.43;;
39102;SDS011;24847;48.218;16.414;2022-12-10T02:02:59;5.60;;;5.07;;
39102;SDS011;24847;48.218;16.414;2022-12-10T02:08:10;5.47;;;4.97;;
39102;SDS011;24847;48.218;16.414;2022-12-10T02:13:21;5.47;;;4.97;;
39102;SDS011;24847;48.218;16.414;2022-12-10T02:18:28;6.03;;;5.38;;
39102;SDS011;24847;48.218;16.414;2022-12-10T02:23:36;5.75;;;5.05;;
39102;SDS011;24847;48.218;16.414;2022-12-10T02:28:45;5.60;;;5.05;;
39102;SDS011;24847;48.218;16.414;2022-12-10T02:39:00;5.57;;;4.60;;
39102;SDS011;24847;48.218;16.414;2022-12-10T02:44:07;5.22;;;4.43;;
39102;SDS011;24847;48.218;16.414;2022-12-10T02:49:14;6.53;;;5.68;;
39102;SDS011;24847;48.218;16.414;2022-12-10T02:54:33;6.60;;;5.75;;
39102;SDS011;24847;48.218;16.414;2022-12-10T02:59:42;6.47;;;5.55;;
39102;SDS011;24847;48.218;16.414;2022-12-10T03:05:05;6.45;;;5.80;;
39102;SDS011;24847;48.218;16.414;2022-12-10T03:10:17;7.82;;;6.00;;
39102;SDS011;24847;48.218;16.414;2022-12-10T03:15:27;6.28;;;5.68;;
39102;SDS011;24847;48.218;16.414;2022-12-10T03:20:34;5.88;;;5.28;;
39102;SDS011;24847;48.218;16.414;2022-12-10T03:25:41;6.45;;;5.63;;
39102;SDS011;24847;48.218;16.414;2022-12-10T03:30:45;6.93;;;6.00;;
39102;SDS011;24847;48.218;16.414;2022-12-10T03:35:50;7.03;;;6.22;;
39102;SDS011;24847;48.218;16.414;2022-12-10T03:40:53;7.10;;;6.30;;
39102;SDS011;24847;48.218;16.414;2022-12-10T03:45:55;7.90;;;6.90;;
39102;SDS011;24847;48.218;16.414;2022-12-10T03:50:59;7.85;;;6.60;;
39102;SDS011;24847;48.218;16.414;2022-12-10T03:56:01;7.65;;;6.85;;
39102;SDS011;24847;48.218;16.414;2022-12-10T04:01:04;7.50;;;6.50;;
39102;SDS011;24847;48.218;16.414;2022-12-10T04:06:09;7.75;;;6.32;;
39102;SDS011;24847;48.218;16.414;2022-12-10T04:11:16;7.50;;;6.47;;
39102;SDS011;24847;48.218;16.414;2022-12-10T04:16:18;7.50;;;6.28;;
39102;SDS011;24847;48.218;16.414;2022-12-10T04:21:31;7.78;;;6.88;;
39102;SDS011;24847;48.218;16.414;2022-12-10T04:26:53;9.43;;;7.22;;
39102;SDS011;24847;48.218;16.414;2022-12-10T04:31:56;6.90;;;5.90;;
39102;SDS011;24847;48.218;16.414;2022-12-10T04:37:02;7.32;;;6.13;;
39102;SDS011;24847;48.218;16.414;2022-12-10T04:42:05;6.90;;;6.20;;
39102;SDS011;24847;48.218;16.414;2022-12-10T04:47:08;7.68;;;6.63;;
39102;SDS011;24847;48.218;16.414;2022-12-10T04:52:13;7.53;;;6.07;;
39102;SDS011;24847;48.218;16.414;2022-12-10T04:57:17;8.95;;;7.32;;
39102;SDS011;24847;48.218;16.414;2022-12-10T05:02:19;9.88;;;7.28;;
39102;SDS011;24847;48.218;16.414;2022-12-10T05:07:23;8.20;;;7.30;;
39102;SDS011;24847;48.218;16.414;2022-12-10T05:12:25;8.18;;;6.82;;
39102;SDS011;24847;48.218;16.414;2022-12-10T05:17:27;7.43;;;6.60;;
39102;SDS011;24847;48.218;16.414;2022-12-10T05:22:30;8.43;;;6.97;;
39102;SDS011;24847;48.218;16.414;2022-12-10T05:27:50;9.32;;;7.10;;
39102;SDS011;24847;48.218;16.414;2022-12-10T05:32:52;8.27;;;7.00;;
39102;SDS011;24847;48.218;16.414;2022-12-10T05:37:56;9.00;;;6.88;;
39102;SDS011;24847;48.218;16.414;2022-12-10T05:42:58;9.48;;;8.07;;
39102;SDS011;24847;48.218;16.414;2022-12-10T05:48:00;9.52;;;7.47;;
39102;SDS011;24847;48.218;16.414;2022-12-10T05:53:04;7.93;;;6.55;;
39102;SDS011;24847;48.218;16.414;2022-12-10T05:58:06;10.85;;;8.43;;
39102;SDS011;24847;48.218;16.414;2022-12-10T06:03:09;9.23;;;7.38;;
39102;SDS011;24847;48.218;16.414;2022-12-10T06:08:13;9.43;;;7.50;;
39102;SDS011;24847;48.218;16.414;2022-12-10T06:13:15;10.95;;;8.05;;
39102;SDS011;24847;48.218;16.414;2022-12-10T06:18:17;12.30;;;8.88;;
39102;SDS011;24847;48.218;16.414;2022-12-10T06:23:22;10.00;;;7.95;;
39102;SDS011;24847;48.218;16.414;2022-12-10T06:28:24;9.02;;;7.32;;
39102;SDS011;24847;48.218;16.414;2022-12-10T06:33:27;9.07;;;7.55;;
39102;SDS011;24847;48.218;16.414;2022-12-10T06:38:30;9.95;;;7.57;;
39102;SDS011;24847;48.218;16.414;2022-12-10T06:43:33;10.18;;;7.95;;
39102;SDS011;24847;48.218;16.414;2022-12-10T06:48:35;10.70;;;8.15;;
39102;SDS011;24847;48.218;16.414;2022-12-10T06:53:40;10.60;;;8.07;;
39102;SDS011;24847;48.218;16.414;2022-12-10T06:58:43;11.82;;;8.52;;
39102;SDS011;24847;48.218;16.414;2022-12-10T07:03:47;12.40;;;9.07;;
39102;SDS011;24847;48.218;16.414;2022-12-10T07:08:52;12.90;;;10.00;;
39102;SDS011;24847;48.218;16.414;2022-12-10T07:13:54;13.27;;;10.02;;
39102;SDS011;24847;48.218;16.414;2022-12-10T07:18:57;10.65;;;8.52;;
39102;SDS011;24847;48.218;16.414;2022-12-10T07:24:04;12.20;;;8.90;;
39102;SDS011;24847;48.218;16.414;2022-12-10T07:29:09;11.52;;;9.00;;
39102;SDS011;24847;48.218;16.414;2022-12-10T07:34:15;12.25;;;9.02;;
39102;SDS011;24847;48.218;16.414;2022-12-10T07:39:19;12.63;;;8.98;;
39102;SDS011;24847;48.218;16.414;2022-12-10T07:44:22;11.65;;;8.52;;
39102;SDS011;24847;48.218;16.414;2022-12-10T07:49:26;14.00;;;9.55;;
39102;SDS011;24847;48.218;16.414;2022-12-10T07:54:29;15.02;;;10.35;;
39102;SDS011;24847;48.218;16.414;2022-12-10T07:59:32;15.50;;;9.20;;
39102;SDS011;24847;48.218;16.414;2022-12-10T08:04:34;14.05;;;9.68;;
39102;SDS011;24847;48.218;16.414;2022-12-10T08:09:39;12.48;;;9.18;;
39102;SDS011;24847;48.218;16.414;2022-12-10T08:14:42;15.68;;;10.05;;
39102;SDS011;24847;48.218;16.414;2022-12-10T08:19:44;11.60;;;9.35;;
39102;SDS011;24847;48.218;16.414;2022-12-10T08:24:48;13.15;;;9.52;;
39102;SDS011;24847;48.218;16.414;2022-12-10T08:29:50;13.23;;;9.52;;
39102;SDS011;24847;48.218;16.414;2022-12-10T08:34:52;13.32;;;9.55;;
39102;SDS011;24847;48.218;16.414;2022-12-10T08:39:56;13.02;;;9.30;;
39102;SDS011;24847;48.218;16.414;2022-12-10T08:44:58;13.35;;;9.70;;
39102;SDS011;24847;48.218;16.414;2022-12-10T08:50:02;12.82;;;9.50;;
39102;SDS011;24847;48.218;16.414;2022-12-10T08:55:07;14.48;;;10.20;;
39102;SDS011;24847;48.218;16.414;2022-12-10T09:00:10;15.02;;;10.80;;
39102;SDS011;24847;48.218;16.414;2022-12-10T09:05:13;13.40;;;10.20;;
39102;SDS011;24847;48.218;16.414;2022-12-10T09:10:17;14.40;;;10.40;;
39102;SDS011;24847;48.218;16.414;2022-12-10T09:15:20;16.60;;;11.55;;
39102;SDS011;24847;48.218;16.414;2022-12-10T09:20:23;14.38;;;10.82;;
39102;SDS011;24847;48.218;16.414;2022-12-10T09:25:26;13.77;;;9.80;;
39102;SDS011;24847;48.218;16.414;2022-12-10T09:30:29;12.45;;;9.13;;
39102;SDS011;24847;48.218;16.414;2022-12-10T09:35:31;13.73;;;9.50;;
39102;SDS011;24847;48.218;16.414;2022-12-10T09:40:36;12.27;;;9.10;;
39102;SDS011;24847;48.218;16.414;2022-12-10T09:45:47;15.02;;;10.57;;
39102;SDS011;24847;48.218;16.414;2022-12-10T09:51:04;14.60;;;10.23;;
39102;SDS011;24847;48.218;16.414;2022-12-10T09:56:14;13.38;;;9.60;;
39102;SDS011;24847;48.218;16.414;2022-12-10T10:01:24;15.15;;;10.70;;
39102;SDS011;24847;48.218;16.414;2022-12-10T10:06:29;15.27;;;10.38;;
39102;SDS011;24847;48.218;16.414;2022-12-10T10:11:34;15.05;;;10.77;;
39102;SDS011;24847;48.218;16.414;2022-12-10T10:16:37;14.93;;;10.45;;
39102;SDS011;24847;48.218;16.414;2022-12-10T10:21:47;13.80;;;10.27;;
39102;SDS011;24847;48.218;16.414;2022-12-10T10:26:53;14.02;;;9.80;;
39102;SDS011;24847;48.218;16.414;2022-12-10T10:32:12;12.80;;;9.32;;
39102;SDS011;24847;48.218;16.414;2022-12-10T10:37:19;13.85;;;10.00;;
39102;SDS011;24847;48.218;16.414;2022-12-10T10:42:27;15.30;;;11.07;;
39102;SDS011;24847;48.218;16.414;2022-12-10T10:47:36;15.88;;;10.55;;
39102;SDS011;24847;48.218;16.414;2022-12-10T10:52:39;13.80;;;10.55;;
39102;SDS011;24847;48.218;16.414;2022-12-10T10:57:44;16.85;;;11.35;;
39102;SDS011;24847;48.218;16.414;2022-12-10T11:02:47;15.35;;;11.48;;
39102;SDS011;24847;48.218;16.414;2022-12-10T11:07:51;16.85;;;11.55;;
39102;SDS011;24847;48.218;16.414;2022-12-10T11:13:03;17.02;;;12.73;;
39102;SDS011;24847;48.218;16.414;2022-12-10T11:18:22;15.35;;;10.90;;
39102;SDS011;24847;48.218;16.414;2022-12-10T11:23:36;15.85;;;11.18;;
39102;SDS011;24847;48.218;16.414;2022-12-10T11:28:47;16.50;;;11.32;;
39102;SDS011;24847;48.218;16.414;2022-12-10T11:39:16;16.50;;;11.80;;
39102;SDS011;24847;48.218;16.414;2022-12-10T11:44:49;15.60;;;11.38;;
39102;SDS011;24847;48.218;16.414;2022-12-10T11:50:02;18.05;;;13.07;;
39102;SDS011;24847;48.218;16.414;2022-12-10T11:55:19;17.02;;;12.05;;
39102;SDS011;24847;48.218;16.414;2022-12-10T12:00:31;19.13;;;12.48;;
39102;SDS011;24847;48.218;16.414;2022-12-10T12:05:47;17.75;;;12.43;;
39102;SDS011;24847;48.218;16.414;2022-12-10T12:11:05;17.25;;;11.10;;
39102;SDS011;24847;48.218;16.414;2022-12-10T12:16:23;16.45;;;11.65;;
39102;SDS011;24847;48.218;16.414;2022-12-10T12:21:33;17.38;;;12.20;;
39102;SDS011;24847;48.218;16.414;2022-12-10T12:26:37;16.83;;;11.43;;
39102;SDS011;24847;48.218;16.414;2022-12-10T12:31:44;15.73;;;11.55;;
39102;SDS011;24847;48.218;16.414;2022-12-10T12:36:50;17.20;;;12.60;;
39102;SDS011;24847;48.218;16.414;2022-12-10T12:41:54;15.30;;;11.07;;
39102;SDS011;24847;48.218;16.414;2022-12-10T12:52:36;15.60;;;11.20;;
39102;SDS011;24847;48.218;16.414;2022-12-10T12:57:46;15.60;;;11.40;;
39102;SDS011;24847;48.218;16.414;2022-12-10T13:02:58;12.67;;;9.97;;
39102;SDS011;24847;48.218;16.414;2022-12-10T13:08:23;16.00;;;11.30;;
39102;SDS011;24847;48.218;16.414;2022-12-10T13:19:26;13.40;;;9.80;;
39102;SDS011;24847;48.218;16.414;2022-12-10T13:24:58;11.18;;;9.23;;
39102;SDS011;24847;48.218;16.414;2022-12-10T13:35:50;12.27;;;9.77;;
39102;SDS011;24847;48.218;16.414;2022-12-10T13:41:00;13.07;;;9.80;;
39102;SDS011;24847;48.218;16.414;2022-12-10T13:46:24;13.50;;;10.25;;
39102;SDS011;24847;48.218;16.414;2022-12-10T13:51:36;13.18;;;9.18;;
39102;SDS011;24847;48.218;16.414;2022-12-10T13:56:51;12.73;;;9.60;;
39102;SDS011;24847;48.218;16.414;2022-12-10T14:02:13;15.20;;;11.00;;
39102;SDS011;24847;48.218;16.414;2022-12-10T14:07:36;15.35;;;11.40;;
39102;SDS011;24847;48.218;16.414;2022-12-10T14:12:39;15.93;;;11.15;;
39102;SDS011;24847;48.218;16.414;2022-12-10T14:17:43;16.15;;;11.68;;
39102;SDS011;24847;48.218;16.414;2022-12-10T14:22:48;15.32;;;10.82;;
39102;SDS011;24847;48.218;16.414;2022-12-10T14:27:53;15.52;;;11.18;;
39102;SDS011;24847;48.218;16.414;2022-12-10T14:33:19;15.90;;;10.93;;
39102;SDS011;24847;48.218;16.414;2022-12-10T14:38:26;16.00;;;11.27;;
39102;SDS011;24847;48.218;16.414;2022-12-10T14:43:39;14.50;;;10.65;;
39102;SDS011;24847;48.218;16.414;2022-12-10T14:48:46;14.95;;;11.10;;
39102;SDS011;24847;48.218;16.414;2022-12-10T14:53:56;15.57;;;11.25;;
39102;SDS011;24847;48.218;16.414;2022-12-10T14:59:07;15.30;;;10.73;;
39102;SDS011;24847;48.218;16.414;2022-12-10T15:04:17;17.92;;;11.98;;
39102;SDS011;24847;48.218;16.414;2022-12-10T15:09:23;15.60;;;10.63;;
39102;SDS011;24847;48.218;16.414;2022-12-10T15:14:28;19.00;;;12.25;;
39102;SDS011;24847;48.218;16.414;2022-12-10T15:19:33;17.30;;;11.98;;
39102;SDS011;24847;48.218;16.414;2022-12-10T15:24:39;17.50;;;12.05;;
39102;SDS011;24847;48.218;16.414;2022-12-10T15:29:44;15.98;;;10.70;;
39102;SDS011;24847;48.218;16.414;2022-12-10T15:34:48;16.05;;;11.30;;
39102;SDS011;24847;48.218;16.414;2022-12-10T15:40:03;15.70;;;11.23;;
39102;SDS011;24847;48.218;16.414;2022-12-10T15:45:27;19.35;;;12.20;;
39102;SDS011;24847;48.218;16.414;2022-12-10T15:50:41;17.42;;;12.05;;
39102;SDS011;24847;48.218;16.414;2022-12-10T15:55:47;16.13;;;10.73;;
39102;SDS011;24847;48.218;16.414;2022-12-10T16:00:50;15.40;;;10.82;;
39102;SDS011;24847;48.218;16.414;2022-12-10T16:05:53;16.27;;;11.05;;
39102;SDS011;24847;48.218;16.414;2022-12-10T16:11:00;16.75;;;11.02;;
39102;SDS011;24847;48.218;16.414;2022-12-10T16:16:11;16.90;;;11.60;;
39102;SDS011;24847;48.218;16.414;2022-12-10T16:21:18;16.95;;;11.43;;
39102;SDS011;24847;48.218;16.414;2022-12-10T16:26:24;15.45;;;11.02;;
39102;SDS011;24847;48.218;16.414;2022-12-10T16:31:27;16.98;;;11.60;;
39102;SDS011;24847;48.218;16.414;2022-12-10T16:36:30;18.60;;;12.30;;
39102;SDS011;24847;48.218;16.414;2022-12-10T16:41:36;18.10;;;12.32;;
39102;SDS011;24847;48.218;16.414;2022-12-10T16:46:39;16.88;;;11.63;;
39102;SDS011;24847;48.218;16.414;2022-12-10T16:51:45;16.42;;;11.30;;
39102;SDS011;24847;48.218;16.414;2022-12-10T16:56:52;16.95;;;11.50;;
39102;SDS011;24847;48.218;16.414;2022-12-10T17:01:57;16.75;;;11.73;;
39102;SDS011;24847;48.218;16.414;2022-12-10T17:07:01;18.38;;;11.73;;
39102;SDS011;24847;48.218;16.414;2022-12-10T17:12:06;17.70;;;11.45;;
39102;SDS011;24847;48.218;16.414;2022-12-10T17:17:09;17.23;;;11.52;;
39102;SDS011;24847;48.218;16.414;2022-12-10T17:22:12;15.45;;;11.25;;
39102;SDS011;24847;48.218;16.414;2022-12-10T17:27:16;17.42;;;11.50;;
39102;SDS011;24847;48.218;16.414;2022-12-10T17:32:20;19.80;;;12.98;;
39102;SDS011;24847;48.218;16.414;2022-12-10T17:37:24;21.45;;;14.10;;
39102;SDS011;24847;48.218;16.414;2022-12-10T17:42:32;19.70;;;13.52;;
39102;SDS011;24847;48.218;16.414;2022-12-10T17:47:35;19.08;;;13.10;;
39102;SDS011;24847;48.218;16.414;2022-12-10T17:52:38;20.63;;;13.32;;
39102;SDS011;24847;48.218;16.414;2022-12-10T17:57:42;16.10;;;11.85;;
39102;SDS011;24847;48.218;16.414;2022-12-10T18:02:45;18.02;;;12.30;;
39102;SDS011;24847;48.218;16.414;2022-12-10T18:07:49;18.40;;;12.70;;
39102;SDS011;24847;48.218;16.414;2022-12-10T18:12:53;21.13;;;13.70;;
39102;SDS011;24847;48.218;16.414;2022-12-10T18:17:57;22.13;;;14.57;;
39102;SDS011;24847;48.218;16.414;2022-12-10T18:23:04;20.58;;;13.70;;
39102;SDS011;24847;48.218;16.414;2022-12-10T18:28:41;18.80;;;12.52;;
39102;SDS011;24847;48.218;16.414;2022-12-10T18:33:47;21.45;;;13.60;;
39102;SDS011;24847;48.218;16.414;2022-12-10T18:38:53;21.50;;;13.90;;
39102;SDS011;24847;48.218;16.414;2022-12-10T18:43:59;21.92;;;14.40;;
39102;SDS011;24847;48.218;16.414;2022-12-10T18:49:02;27.23;;;16.98;;
39102;SDS011;24847;48.218;16.414;2022-12-10T18:54:05;23.58;;;14.73;;
39102;SDS011;24847;48.218;16.414;2022-12-10T18:59:12;21.58;;;13.80;;
39102;SDS011;24847;48.218;16.414;2022-12-10T19:04:17;22.70;;;15.43;;
39102;SDS011;24847;48.218;16.414;2022-12-10T19:09:21;24.38;;;15.48;;
39102;SDS011;24847;48.218;16.414;2022-12-10T19:14:27;23.88;;;15.27;;
39102;SDS011;24847;48.218;16.414;2022-12-10T19:19:31;25.65;;;15.80;;
39102;SDS011;24847;48.218;16.414;2022-12-10T19:24:36;26.38;;;16.20;;
39102;SDS011;24847;48.218;16.414;2022-12-10T19:29:41;20.73;;;13.82;;
39102;SDS011;24847;48.218;16.414;2022-12-10T19:34:48;22.85;;;14.68;;
39102;SDS011;24847;48.218;16.414;2022-12-10T19:39:52;22.88;;;15.02;;
39102;SDS011;24847;48.218;16.414;2022-12-10T19:45:01;26.35;;;15.85;;
39102;SDS011;24847;48.218;16.414;2022-12-10T19:50:09;28.15;;;16.42;;
39102;SDS011;24847;48.218;16.414;2022-12-10T19:55:19;19.90;;;13.43;;
39102;SDS011;24847;48.218;16.414;2022-12-10T20:00:26;26.40;;;16.00;;
39102;SDS011;24847;48.218;16.414;2022-12-10T20:05:34;25.80;;;15.85;;
39102;SDS011;24847;48.218;16.414;2022-12-10T20:10:39;25.42;;;15.90;;
39102;SDS011;24847;48.218;16.414;2022-12-10T20:15:43;23.80;;;15.25;;
39102;SDS011;24847;48.218;16.414;2022-12-10T20:20:48;26.25;;;16.35;;
39102;SDS011;24847;48.218;16.414;2022-12-10T20:25:52;26.95;;;16.17;;
39102;SDS011;24847;48.218;16.414;2022-12-10T20:30:58;28.48;;;17.38;;
39102;SDS011;24847;48.218;16.414;2022-12-10T20:36:07;25.45;;;15.63;;
39102;SDS011;24847;48.218;16.414;2022-12-10T20:41:13;28.55;;;17.15;;
39102;SDS011;24847;48.218;16.414;2022-12-10T20:46:20;24.27;;;15.85;;
39102;SDS011;24847;48.218;16.414;2022-12-10T20:51:27;24.27;;;15.77;;
39102;SDS011;24847;48.218;16.414;2022-12-10T20:56:33;22.98;;;14.27;;
39102;SDS011;24847;48.218;16.414;2022-12-10T21:01:38;23.90;;;15.57;;
39102;SDS011;24847;48.218;16.414;2022-12-10T21:06:42;22.35;;;14.20;;
39102;SDS011;24847;48.218;16.414;2022-12-10T21:11:49;22.25;;;14.18;;
39102;SDS011;24847;48.218;16.414;2022-12-10T21:16:54;23.30;;;15.52;;
39102;SDS011;24847;48.218;16.414;2022-12-10T21:21:58;23.20;;;15.38;;
39102;SDS011;24847;48.218;16.414;2022-12-10T21:27:01;22.42;;;14.75;;
39102;SDS011;24847;48.218;16.414;2022-12-10T21:32:05;21.08;;;13.50;;
39102;SDS011;24847;48.218;16.414;2022-12-10T21:37:09;22.60;;;14.70;;
39102;SDS011;24847;48.218;16.414;2022-12-10T21:42:13;22.45;;;13.45;;
39102;SDS011;24847;48.218;16.414;2022-12-10T21:47:34;21.60;;;14.48;;
39102;SDS011;24847;48.218;16.414;2022-12-10T21:52:37;23.13;;;14.85;;
39102;SDS011;24847;48.218;16.414;2022-12-10T21:57:40;19.25;;;13.23;;
39102;SDS011;24847;48.218;16.414;2022-12-10T22:02:44;21.58;;;13.63;;
39102;SDS011;24847;48.218;16.414;2022-12-10T22:07:47;20.20;;;13.48;;
39102;SDS011;24847;48.218;16.414;2022-12-10T22:12:49;18.52;;;12.95;;
39102;SDS011;24847;48.218;16.414;2022-12-10T22:17:53;23.23;;;14.60;;
39102;SDS011;24847;48.218;16.414;2022-12-10T22:22:55;24.83;;;14.13;;
39102;SDS011;24847;48.218;16.414;2022-12-10T22:27:57;21.77;;;14.48;;
39102;SDS011;24847;48.218;16.414;2022-12-10T22:33:02;23.23;;;14.68;;
39102;SDS011;24847;48.218;16.414;2022-12-10T22:38:04;19.13;;;13.32;;
39102;SDS011;24847;48.218;16.414;2022-12-10T22:43:07;19.13;;;12.80;;
39102;SDS011;24847;48.218;16.414;2022-12-10T22:48:11;18.13;;;12.15;;
39102;SDS011;24847;48.218;16.414;2022-12-10T22:53:13;21.65;;;12.55;;
39102;SDS011;24847;48.218;16.414;2022-12-10T22:58:16;22.27;;;13.77;;
39102;SDS011;24847;48.218;16.414;2022-12-10T23:03:20;21.20;;;13.57;;
39102;SDS011;24847;48.218;16.414;2022-12-10T23:08:24;21.52;;;14.30;;
39102;SDS011;24847;48.218;16.414;2022-12-10T23:13:27;24.15;;;15.48;;
39102;SDS011;24847;48.218;16.414;2022-12-10T23:18:31;25.90;;;14.45;;
39102;SDS011;24847;48.218;16.414;2022-12-10T23:23:33;23.67;;;14.23;;
39102;SDS011;24847;48.218;16.414;2022-12-10T23:28:35;22.58;;;13.95;;
39102;SDS011;24847;48.218;16.414;2022-12-10T23:33:39;22.77;;;14.38;;
39102;SDS011;24847;48.218;16.414;2022-12-10T23:38:41;25.08;;;15.50;;
39102;SDS011;24847;48.218;16.414;2022-12-10T23:43:44;26.20;;;15.85;;
39102;SDS011;24847;48.218;16.414;2022-12-10T23:48:48;26.48;;;15.43;;
39102;SDS011;24847;48.218;16.414;2022-12-10T23:53:50;23.83;;;14.23;;
39102;SDS011;24847;48.218;16.414;2022-12-10T23:58:52;23.17;;;13.43;;
